Time;durP1;ratioP1;P1;durP2;ratioP2;P2;SDS_P1;SDS_P2;PMS_P1;PMS_P2;Temp;Humidity;BMP_temperature;BMP_pressure;BME280_temperature;BME280_humidity;BME280_pressure;Samples;Min_cycle;Max_cycle;Signal;HPM_P1;HPM_P2
2023/06/09 00:01:13;;;;;;;9.60;7.10;;;16.70;99.90;;;;;;4991676;28;21045;-54
2023/06/09 00:03:40;;;;;;;9.00;6.53;;;16.70;99.90;;;;;;4993655;28;20524;-55
2023/06/09 00:06:08;;;;;;;15.57;7.00;;;16.70;99.90;;;;;;4993118;28;20460;-56
2023/06/09 00:08:35;;;;;;;9.87;6.97;;;16.70;99.90;;;;;;4994081;28;20469;-54
2023/06/09 00:11:03;;;;;;;9.30;6.80;;;16.70;99.90;;;;;;4992159;28;20468;-51
2023/06/09 00:13:29;;;;;;;7.57;6.83;;;16.70;99.90;;;;;;4993769;28;20523;-51
2023/06/09 00:15:56;;;;;;;8.40;6.67;;;16.80;99.90;;;;;;4993761;28;20580;-50
2023/06/09 00:18:24;;;;;;;8.63;6.23;;;16.70;99.90;;;;;;4995261;28;20476;-51
2023/06/09 00:20:51;;;;;;;8.00;6.53;;;16.70;99.90;;;;;;4995713;28;20463;-51
2023/06/09 00:23:17;;;;;;;9.47;7.10;;;16.60;99.90;;;;;;4995508;28;20483;-51
2023/06/09 00:25:44;;;;;;;7.43;6.70;;;16.60;99.90;;;;;;4994277;28;20495;-51
2023/06/09 00:28:12;;;;;;;10.97;7.00;;;16.50;99.90;;;;;;5001255;28;20523;-51
2023/06/09 00:30:38;;;;;;;14.13;6.57;;;16.40;99.90;;;;;;4995331;28;20962;-51
2023/06/09 00:33:05;;;;;;;9.50;7.60;;;16.30;99.90;;;;;;4997709;28;20459;-51
2023/06/09 00:35:32;;;;;;;8.40;7.20;;;16.40;99.90;;;;;;4995023;28;20575;-51
2023/06/09 00:37:58;;;;;;;8.17;6.90;;;16.30;99.90;;;;;;4995420;28;20475;-51
2023/06/09 00:40:25;;;;;;;9.00;6.90;;;16.30;99.90;;;;;;4994228;28;20576;-51
2023/06/09 00:42:51;;;;;;;10.77;7.30;;;16.20;99.90;;;;;;4997477;28;20495;-52
2023/06/09 00:45:20;;;;;;;14.20;7.37;;;16.20;99.90;;;;;;4992930;28;20481;-51
2023/06/09 00:47:46;;;;;;;9.07;6.90;;;16.10;99.90;;;;;;4994031;28;20496;-51
2023/06/09 00:50:16;;;;;;;13.30;7.67;;;16.00;99.90;;;;;;4982166;28;20489;-51
2023/06/09 00:52:44;;;;;;;9.77;7.10;;;16.00;99.90;;;;;;4994967;28;20900;-51
2023/06/09 00:55:12;;;;;;;8.63;7.77;;;16.00;99.90;;;;;;4990966;28;20994;-52
2023/06/09 00:57:39;;;;;;;10.47;8.30;;;15.90;99.90;;;;;;4989479;28;20483;-52
2023/06/09 01:00:07;;;;;;;10.17;6.87;;;15.90;99.90;;;;;;4991194;28;20461;-52
2023/06/09 01:02:37;;;;;;;8.53;6.90;;;15.80;99.90;;;;;;4991074;28;20457;-52
2023/06/09 01:05:05;;;;;;;9.90;7.50;;;15.80;99.90;;;;;;4993786;28;20476;-55
2023/06/09 01:07:42;;;;;;;7.07;6.30;;;15.70;99.90;;;;;;4992760;28;20497;-54
2023/06/09 01:10:16;;;;;;;10.50;7.43;;;15.70;99.90;;;;;;4995958;28;20456;-56
2023/06/09 01:12:51;;;;;;;7.47;6.73;;;15.60;99.90;;;;;;4994111;28;20548;-54
2023/06/09 01:15:21;;;;;;;16.90;9.00;;;15.60;99.90;;;;;;4978739;28;20531;-56
2023/06/09 01:17:54;;;;;;;9.33;7.00;;;15.60;99.90;;;;;;4993654;28;20468;-54
2023/06/09 01:20:38;;;;;;;11.83;7.90;;;15.50;99.90;;;;;;4994560;28;20480;-56
2023/06/09 01:23:08;;;;;;;16.73;7.00;;;15.50;99.90;;;;;;4993082;28;20444;-56
2023/06/09 01:25:39;;;;;;;9.33;7.73;;;15.50;99.90;;;;;;4994897;28;20821;-54
2023/06/09 01:28:07;;;;;;;10.63;7.73;;;15.40;99.90;;;;;;4992508;28;20484;-56
2023/06/09 01:30:36;;;;;;;13.27;7.77;;;15.40;99.90;;;;;;4992333;28;20493;-56
2023/06/09 01:33:07;;;;;;;9.80;7.20;;;15.40;99.90;;;;;;4992806;28;20505;-55
2023/06/09 01:35:34;;;;;;;12.87;7.67;;;15.40;99.90;;;;;;4986340;28;20564;-56
2023/06/09 01:38:01;;;;;;;11.17;7.67;;;15.30;99.90;;;;;;4988297;28;20470;-54
2023/06/09 01:40:30;;;;;;;7.70;7.00;;;15.30;99.90;;;;;;4998824;28;20455;-55
2023/06/09 01:43:01;;;;;;;8.30;7.43;;;15.20;99.90;;;;;;4992687;28;20576;-55
2023/06/09 01:45:27;;;;;;;7.90;7.10;;;15.20;99.90;;;;;;4992270;28;21070;-56
2023/06/09 01:47:54;;;;;;;20.17;7.00;;;15.20;99.90;;;;;;4990656;28;20460;-55
2023/06/09 01:50:29;;;;;;;11.70;7.80;;;15.10;99.90;;;;;;4990516;28;20909;-55
2023/06/09 01:53:01;;;;;;;8.57;7.67;;;15.10;99.90;;;;;;4992155;28;20472;-56
2023/06/09 01:55:33;;;;;;;8.57;7.60;;;15.00;99.90;;;;;;4987238;28;20575;-55
2023/06/09 01:58:05;;;;;;;10.63;7.63;;;15.00;99.90;;;;;;4993846;28;20539;-54
2023/06/09 02:00:33;;;;;;;10.20;7.10;;;14.90;99.90;;;;;;4990838;28;20468;-54
2023/06/09 02:03:01;;;;;;;12.70;7.67;;;14.90;99.90;;;;;;4990560;28;20594;-54
2023/06/09 02:05:29;;;;;;;11.50;7.30;;;14.90;99.90;;;;;;4991429;28;20906;-54
2023/06/09 02:07:57;;;;;;;8.37;7.50;;;14.90;99.90;;;;;;4988796;28;20456;-56
2023/06/09 02:10:23;;;;;;;14.00;8.00;;;14.90;99.90;;;;;;4992746;28;20501;-54
2023/06/09 02:12:50;;;;;;;10.90;7.97;;;14.80;99.90;;;;;;4991540;28;20575;-55
2023/06/09 02:15:19;;;;;;;9.13;7.83;;;14.70;99.90;;;;;;4993560;28;20575;-55
2023/06/09 02:17:45;;;;;;;10.47;8.30;;;14.60;99.90;;;;;;4993462;28;20452;-56
2023/06/09 02:20:13;;;;;;;11.30;8.10;;;14.60;99.90;;;;;;4992961;28;20540;-55
2023/06/09 02:22:40;;;;;;;8.40;7.40;;;14.60;99.90;;;;;;4991027;28;20491;-55
2023/06/09 02:25:08;;;;;;;10.73;7.73;;;14.60;99.90;;;;;;4994242;28;20556;-55
2023/06/09 02:27:35;;;;;;;9.57;8.63;;;14.60;99.90;;;;;;4993309;28;20460;-56
2023/06/09 02:30:01;;;;;;;12.20;8.20;;;14.50;99.90;;;;;;4993067;28;20961;-55
2023/06/09 02:32:29;;;;;;;10.87;7.33;;;14.40;99.90;;;;;;4992809;28;20503;-54
2023/06/09 02:34:56;;;;;;;11.53;8.70;;;14.40;99.90;;;;;;4997940;28;20559;-55
2023/06/09 02:37:22;;;;;;;13.23;9.00;;;14.40;99.90;;;;;;4990813;28;20544;-54
2023/06/09 02:39:49;;;;;;;9.90;8.03;;;14.30;97.40;;;;;;4991033;28;20619;-56
2023/06/09 02:42:15;;;;;;;10.27;8.00;;;14.20;91.90;;;;;;4990873;28;20496;-56
2023/06/09 02:44:42;;;;;;;11.47;8.27;;;14.20;94.20;;;;;;4992481;28;20882;-56
2023/06/09 02:47:09;;;;;;;11.07;7.73;;;14.30;88.50;;;;;;4996705;28;20559;-54
2023/06/09 02:49:37;;;;;;;15.10;8.77;;;14.30;87.00;;;;;;4998335;28;21025;-54
2023/06/09 02:52:04;;;;;;;12.17;8.30;;;14.20;87.70;;;;;;4992446;28;20561;-55
2023/06/09 02:54:31;;;;;;;13.47;8.93;;;14.10;84.70;;;;;;4993922;28;20488;-54
2023/06/09 02:56:57;;;;;;;22.27;8.10;;;14.00;81.20;;;;;;4990915;28;20564;-56
2023/06/09 02:59:24;;;;;;;14.97;8.40;;;14.00;78.40;;;;;;4990264;28;20555;-55
2023/06/09 03:01:50;;;;;;;9.53;8.60;;;14.10;72.90;;;;;;4993856;28;20559;-55
2023/06/09 03:04:17;;;;;;;10.70;8.53;;;14.10;71.80;;;;;;5000183;28;20583;-55
2023/06/09 03:06:49;;;;;;;11.60;7.70;;;14.10;76.30;;;;;;4988233;28;20493;-55
2023/06/09 03:09:16;;;;;;;10.90;8.53;;;14.10;82.10;;;;;;5004269;28;20543;-55
2023/06/09 03:11:42;;;;;;;11.87;8.27;;;14.00;86.20;;;;;;5000231;28;21054;-55
2023/06/09 03:14:09;;;;;;;9.20;8.30;;;14.10;82.90;;;;;;4988432;28;20607;-54
2023/06/09 03:16:35;;;;;;;12.37;9.37;;;14.10;83.00;;;;;;4993235;28;20524;-55
2023/06/09 03:19:02;;;;;;;9.87;8.87;;;14.00;80.30;;;;;;5000193;28;20567;-56
2023/06/09 03:21:28;;;;;;;15.53;9.17;;;14.00;73.80;;;;;;4990058;28;20512;-54
2023/06/09 03:23:56;;;;;;;10.50;7.87;;;14.10;75.70;;;;;;5000839;28;20571;-55
2023/06/09 03:26:25;;;;;;;13.93;9.17;;;14.20;72.10;;;;;;4990530;28;20443;-55
2023/06/09 03:28:52;;;;;;;9.00;7.80;;;14.20;78.30;;;;;;4990951;28;21005;-57
2023/06/09 03:31:18;;;;;;;10.40;8.80;;;14.20;75.20;;;;;;4994091;28;20548;-54
2023/06/09 03:33:45;;;;;;;10.40;8.43;;;14.30;77.10;;;;;;4999923;28;20919;-56
2023/06/09 03:36:11;;;;;;;10.73;7.90;;;14.30;86.00;;;;;;4992253;28;20571;-54
2023/06/09 03:38:38;;;;;;;14.40;8.47;;;14.40;84.10;;;;;;5002989;28;20575;-54
2023/06/09 03:41:06;;;;;;;9.13;7.87;;;14.40;86.90;;;;;;4995173;28;20547;-55
2023/06/09 03:43:32;;;;;;;13.60;8.87;;;14.50;91.60;;;;;;4992832;28;20488;-55
2023/06/09 03:45:59;;;;;;;12.30;8.33;;;14.60;94.70;;;;;;4994505;28;20523;-56
2023/06/09 03:48:26;;;;;;;13.67;7.63;;;14.60;98.00;;;;;;4992793;28;20559;-55
2023/06/09 03:50:53;;;;;;;9.90;7.50;;;14.80;99.90;;;;;;4995128;28;20568;-55
2023/06/09 03:53:20;;;;;;;9.73;8.43;;;14.80;99.90;;;;;;4994236;28;20465;-55
2023/06/09 03:55:46;;;;;;;12.90;7.83;;;14.90;99.90;;;;;;4994725;28;20860;-55
2023/06/09 03:58:14;;;;;;;12.50;7.70;;;15.00;99.90;;;;;;4993860;28;20547;-54
2023/06/09 04:00:42;;;;;;;13.70;8.30;;;15.00;99.90;;;;;;4992665;28;20539;-56
2023/06/09 04:03:09;;;;;;;13.03;8.47;;;15.10;99.90;;;;;;4993059;28;20464;-56
2023/06/09 04:05:35;;;;;;;12.93;7.93;;;15.20;99.90;;;;;;4994046;28;20492;-56
2023/06/09 04:08:02;;;;;;;9.40;7.50;;;15.20;99.90;;;;;;4993228;28;20509;-56
2023/06/09 04:10:28;;;;;;;9.90;7.60;;;15.30;99.90;;;;;;4995820;28;20472;-56
2023/06/09 04:12:55;;;;;;;10.03;7.40;;;15.30;99.90;;;;;;4994895;28;20547;-55
2023/06/09 04:15:22;;;;;;;9.87;7.20;;;15.30;99.90;;;;;;4994421;28;21057;-55
2023/06/09 04:17:49;;;;;;;9.60;6.90;;;15.40;99.90;;;;;;4997695;28;20571;-55
2023/06/09 04:20:16;;;;;;;10.10;8.17;;;15.40;99.90;;;;;;5015223;28;20534;-55
2023/06/09 04:22:48;;;;;;;10.63;7.10;;;15.40;99.90;;;;;;5007700;28;20460;-57
2023/06/09 04:25:14;;;;;;;6.90;6.20;;;15.40;99.90;;;;;;4995029;28;20845;-55
2023/06/09 04:27:42;;;;;;;8.57;7.00;;;15.40;99.90;;;;;;4995404;28;20507;-56
2023/06/09 04:30:10;;;;;;;9.83;6.57;;;15.50;99.90;;;;;;4996213;28;20464;-56
2023/06/09 04:32:37;;;;;;;9.30;6.43;;;15.60;99.90;;;;;;4996363;28;20547;-56
2023/06/09 04:35:05;;;;;;;9.73;7.53;;;15.60;99.90;;;;;;4995854;28;20555;-55
2023/06/09 04:37:32;;;;;;;16.03;7.53;;;15.70;99.90;;;;;;4995080;28;20901;-56
2023/06/09 04:39:58;;;;;;;13.50;6.70;;;15.70;99.90;;;;;;4994726;28;20488;-56
2023/06/09 04:42:25;;;;;;;11.30;6.93;;;15.80;99.90;;;;;;4994135;28;20560;-55
2023/06/09 04:44:53;;;;;;;9.37;6.87;;;15.80;99.90;;;;;;4994041;28;20476;-55
2023/06/09 04:47:20;;;;;;;9.20;6.03;;;15.90;99.90;;;;;;4990509;28;20463;-56
2023/06/09 04:49:49;;;;;;;6.83;6.03;;;15.90;99.90;;;;;;4987967;28;20500;-56
2023/06/09 04:52:17;;;;;;;8.73;6.77;;;16.00;99.90;;;;;;4990044;28;20828;-55
2023/06/09 04:54:44;;;;;;;7.27;6.13;;;16.10;99.90;;;;;;4993984;28;20539;-56
2023/06/09 04:57:11;;;;;;;11.47;7.10;;;16.20;99.90;;;;;;4994245;28;20488;-56
2023/06/09 04:59:37;;;;;;;17.20;5.83;;;16.20;21.20;;;;;;4991727;28;20548;-57
2023/06/09 05:02:04;;;;;;;15.03;6.10;;;16.40;36.90;;;;;;4991372;28;20468;-54
2023/06/09 05:04:31;;;;;;;8.57;6.07;;;16.40;43.10;;;;;;4992773;28;20922;-57
2023/06/09 05:06:59;;;;;;;5.80;4.90;;;16.50;77.30;;;;;;4990821;28;20581;-55
2023/06/09 05:09:25;;;;;;;7.63;5.00;;;16.60;92.10;;;;;;4993878;28;20500;-54
2023/06/09 05:11:52;;;;;;;7.07;5.00;;;16.70;95.10;;;;;;4992977;28;20979;-55
2023/06/09 05:14:19;;;;;;;6.23;5.53;;;16.80;99.90;;;;;;4987738;28;20563;-55
2023/06/09 05:16:45;;;;;;;7.33;5.27;;;16.90;99.90;;;;;;4992814;28;20575;-57
2023/06/09 05:19:12;;;;;;;7.23;5.40;;;17.00;99.90;;;;;;4994346;28;20980;-55
2023/06/09 05:21:38;;;;;;;5.70;4.90;;;17.10;99.90;;;;;;4992677;28;20452;-55
2023/06/09 05:24:07;;;;;;;9.23;5.07;;;17.30;79.70;;;;;;4992217;28;20484;-56
2023/06/09 05:26:33;;;;;;;6.83;5.33;;;17.40;84.40;;;;;;4992303;28;20492;-55
2023/06/09 05:29:00;;;;;;;5.60;4.30;;;17.50;92.50;;;;;;4993076;28;20544;-57
2023/06/09 05:31:26;;;;;;;6.47;5.10;;;17.50;99.90;;;;;;4991964;28;20469;-56
2023/06/09 05:33:53;;;;;;;4.93;4.30;;;17.60;99.90;;;;;;4993496;28;20576;-54
2023/06/09 05:36:19;;;;;;;5.23;4.13;;;17.70;99.90;;;;;;4989990;28;20480;-55
2023/06/09 05:38:46;;;;;;;12.83;4.97;;;17.80;99.90;;;;;;4991447;28;20600;-56
2023/06/09 05:41:15;;;;;;;5.80;4.60;;;17.90;99.90;;;;;;4994049;28;20531;-56
2023/06/09 05:43:41;;;;;;;4.90;4.30;;;18.00;99.90;;;;;;4986561;28;20493;-55
2023/06/09 05:46:08;;;;;;;11.50;4.97;;;18.00;99.90;;;;;;4991189;28;20941;-55
2023/06/09 05:48:34;;;;;;;8.77;4.90;;;18.00;99.90;;;;;;4990695;28;20595;-56
2023/06/09 05:51:01;;;;;;;4.03;3.70;;;18.10;99.90;;;;;;4993831;28;20858;-56
2023/06/09 05:53:29;;;;;;;8.67;5.23;;;18.20;99.90;;;;;;4992534;28;20547;-56
2023/06/09 05:55:58;;;;;;;7.43;4.43;;;18.20;99.90;;;;;;4992424;28;20504;-55
2023/06/09 05:58:27;;;;;;;5.17;3.97;;;18.20;99.90;;;;;;4989926;28;20461;-55
2023/06/09 06:00:57;;;;;;;8.03;4.73;;;18.30;99.90;;;;;;4990922;28;20457;-56
2023/06/09 06:03:24;;;;;;;9.23;4.70;;;18.30;99.90;;;;;;4991646;28;20534;-57
2023/06/09 06:05:51;;;;;;;8.03;4.50;;;18.30;99.90;;;;;;4991871;28;20460;-54
2023/06/09 06:08:17;;;;;;;5.17;4.50;;;18.40;99.90;;;;;;4991138;28;20880;-56
2023/06/09 06:10:44;;;;;;;5.67;4.57;;;18.40;99.90;;;;;;4991132;28;20496;-55
2023/06/09 06:13:11;;;;;;;6.43;4.73;;;18.50;99.90;;;;;;4991315;28;20518;-55
2023/06/09 06:15:38;;;;;;;5.47;4.93;;;18.50;99.90;;;;;;4991876;28;20552;-56
2023/06/09 06:18:05;;;;;;;7.47;5.10;;;18.60;99.90;;;;;;5003698;28;20535;-54
2023/06/09 06:20:31;;;;;;;4.90;4.10;;;18.70;99.90;;;;;;5013365;28;20455;-55
2023/06/09 06:22:59;;;;;;;6.97;4.63;;;18.70;99.90;;;;;;4995300;28;20453;-57
2023/06/09 06:25:28;;;;;;;5.27;4.70;;;18.80;99.90;;;;;;4993167;28;20472;-55
2023/06/09 06:27:55;;;;;;;6.00;4.37;;;18.80;99.90;;;;;;4993140;28;20452;-55
2023/06/09 06:30:22;;;;;;;6.60;4.40;;;18.90;99.90;;;;;;4994497;28;20516;-55
2023/06/09 06:32:53;;;;;;;8.77;4.30;;;19.10;99.90;;;;;;4994058;28;20564;-56
2023/06/09 06:35:24;;;;;;;5.80;4.73;;;19.20;99.90;;;;;;4992496;28;20543;-56
2023/06/09 06:37:51;;;;;;;8.80;4.40;;;19.20;99.90;;;;;;4992881;28;20480;-57
2023/06/09 06:40:17;;;;;;;5.83;4.47;;;19.30;99.90;;;;;;4992415;28;20823;-56
2023/06/09 06:42:44;;;;;;;6.70;5.17;;;19.40;99.90;;;;;;4989467;28;20954;-56
2023/06/09 06:45:11;;;;;;;5.13;4.67;;;19.40;99.90;;;;;;4990448;28;20555;-55
2023/06/09 06:47:38;;;;;;;4.80;4.30;;;19.50;99.90;;;;;;4991062;28;21034;-56
2023/06/09 06:50:08;;;;;;;6.13;4.60;;;19.60;99.90;;;;;;4989949;28;20547;-56
2023/06/09 06:52:34;;;;;;;6.13;4.20;;;19.60;99.90;;;;;;4991872;28;20983;-56
2023/06/09 06:55:01;;;;;;;8.30;5.13;;;19.70;99.90;;;;;;4990563;28;20879;-55
2023/06/09 06:57:28;;;;;;;5.80;4.13;;;19.80;99.90;;;;;;4990184;28;20480;-54
2023/06/09 06:59:54;;;;;;;7.57;4.20;;;19.80;99.90;;;;;;4991739;28;20916;-57
2023/06/09 07:02:21;;;;;;;4.73;4.33;;;19.90;99.90;;;;;;4990985;28;20495;-56
2023/06/09 07:04:48;;;;;;;19.10;5.87;;;20.00;99.90;;;;;;4989216;28;20494;-53
2023/06/09 07:07:16;;;;;;;5.90;4.60;;;20.10;99.90;;;;;;4994760;28;20460;-52
2023/06/09 07:09:42;;;;;;;8.30;4.10;;;20.20;99.90;;;;;;4995249;28;20559;-53
2023/06/09 07:12:09;;;;;;;6.17;4.47;;;20.30;99.90;;;;;;4988714;28;20544;-51
2023/06/09 07:14:36;;;;;;;4.67;4.27;;;20.40;99.90;;;;;;4991451;28;20555;-51
2023/06/09 07:17:02;;;;;;;11.77;4.70;;;20.50;99.90;;;;;;4990884;28;20841;-51
2023/06/09 07:19:29;;;;;;;5.07;4.33;;;20.50;99.90;;;;;;4990589;28;20475;-51
2023/06/09 07:21:55;;;;;;;6.73;4.40;;;20.60;99.90;;;;;;4987204;28;20902;-52
2023/06/09 07:24:23;;;;;;;6.27;4.47;;;20.60;99.90;;;;;;4989835;28;20575;-52
2023/06/09 07:26:50;;;;;;;5.90;3.87;;;20.70;99.90;;;;;;4989406;28;20544;-52
2023/06/09 07:29:16;;;;;;;6.30;4.60;;;20.80;99.90;;;;;;4992234;28;20951;-51
2023/06/09 07:31:43;;;;;;;6.13;4.03;;;21.00;99.90;;;;;;4991497;28;20552;-51
2023/06/09 07:34:09;;;;;;;5.80;4.70;;;21.00;99.90;;;;;;5004905;28;20547;-51
2023/06/09 07:36:37;;;;;;;4.20;3.90;;;21.20;99.90;;;;;;4999745;28;20456;-52
2023/06/09 07:39:04;;;;;;;9.53;4.40;;;21.20;99.90;;;;;;4984230;28;20838;-52
2023/06/09 07:41:32;;;;;;;5.27;3.90;;;21.30;99.90;;;;;;4988880;28;20468;-51
2023/06/09 07:43:59;;;;;;;4.63;4.10;;;21.40;99.90;;;;;;4990362;28;20476;-53
2023/06/09 07:46:26;;;;;;;12.47;3.87;;;21.50;99.90;;;;;;4992220;28;21002;-51
2023/06/09 07:48:52;;;;;;;4.33;3.87;;;21.60;99.90;;;;;;4991314;28;20499;-52
2023/06/09 07:51:19;;;;;;;3.97;3.43;;;21.70;99.90;;;;;;4990998;28;20459;-52
2023/06/09 07:53:46;;;;;;;9.87;3.60;;;21.90;99.90;;;;;;4990138;28;20575;-52
2023/06/09 07:56:12;;;;;;;4.97;3.83;;;22.00;99.90;;;;;;4995632;28;20444;-52
2023/06/09 07:58:41;;;;;;;8.30;3.20;;;22.10;99.90;;;;;;4991675;28;20519;-52
2023/06/09 08:01:07;;;;;;;3.30;3.00;;;22.20;99.90;;;;;;4991133;28;20476;-52
2023/06/09 08:03:35;;;;;;;9.30;3.23;;;22.40;99.90;;;;;;4989880;28;20593;-53
2023/06/09 08:06:02;;;;;;;5.33;4.77;;;22.40;99.90;;;;;;4990234;28;20575;-51
2023/06/09 08:08:31;;;;;;;5.10;4.17;;;22.60;99.90;;;;;;4989213;28;21026;-52
2023/06/09 08:10:57;;;;;;;4.37;3.60;;;22.70;99.90;;;;;;4986478;28;20488;-53
2023/06/09 08:13:25;;;;;;;12.73;4.03;;;22.80;99.90;;;;;;4990287;28;20552;-52
2023/06/09 08:15:52;;;;;;;3.50;3.30;;;23.00;99.90;;;;;;4990196;28;20551;-51
2023/06/09 08:18:19;;;;;;;7.63;4.20;;;23.20;99.90;;;;;;4993506;28;20572;-52
2023/06/09 08:20:45;;;;;;;14.87;5.93;;;23.30;99.90;;;;;;4995592;28;20543;-52
2023/06/09 08:23:12;;;;;;;10.07;4.23;;;23.30;99.90;;;;;;4994643;28;20452;-53
2023/06/09 08:25:38;;;;;;;3.93;3.63;;;23.40;99.90;;;;;;5003472;28;20448;-54
2023/06/09 08:28:05;;;;;;;4.30;4.00;;;23.50;99.90;;;;;;5014016;28;20494;-52
2023/06/09 08:30:32;;;;;;;4.00;3.67;;;23.60;99.90;;;;;;5009495;28;20445;-52
2023/06/09 08:33:01;;;;;;;5.10;3.80;;;23.70;99.90;;;;;;4993997;28;20473;-52
2023/06/09 08:35:31;;;;;;;4.90;4.00;;;23.70;99.90;;;;;;4994921;28;20484;-52
2023/06/09 08:37:58;;;;;;;9.10;4.27;;;23.80;99.90;;;;;;4994257;28;20489;-50
2023/06/09 08:40:24;;;;;;;7.27;4.10;;;23.80;99.90;;;;;;4995254;28;20477;-53
2023/06/09 08:42:54;;;;;;;4.27;3.83;;;23.90;99.90;;;;;;4993385;28;20547;-53
2023/06/09 08:45:22;;;;;;;3.93;3.70;;;24.00;99.90;;;;;;4991370;28;20572;-52
2023/06/09 08:47:50;;;;;;;5.63;3.97;;;24.10;99.90;;;;;;4991367;28;21173;-51
2023/06/09 08:50:21;;;;;;;5.87;4.47;;;24.20;99.90;;;;;;4991609;28;20540;-52
2023/06/09 08:52:48;;;;;;;11.10;4.43;;;24.30;99.90;;;;;;4991362;28;20496;-52
2023/06/09 08:55:15;;;;;;;5.10;4.60;;;24.40;99.90;;;;;;4994356;28;20949;-52
2023/06/09 08:57:43;;;;;;;6.03;4.43;;;24.60;99.90;;;;;;4992851;28;20575;-52
2023/06/09 09:00:11;;;;;;;7.73;4.70;;;24.50;99.90;;;;;;4994591;28;21058;-52
2023/06/09 09:02:38;;;;;;;6.10;4.07;;;24.60;99.90;;;;;;4988346;28;20467;-52
2023/06/09 09:05:05;;;;;;;8.00;4.87;;;24.90;99.90;;;;;;4993396;28;20504;-53
2023/06/09 09:07:33;;;;;;;4.80;3.93;;;24.90;99.90;;;;;;4992322;28;20550;-53
2023/06/09 09:10:00;;;;;;;6.07;4.07;;;25.30;99.90;;;;;;4985283;28;20565;-51
2023/06/09 09:12:26;;;;;;;7.47;3.90;;;25.50;99.90;;;;;;4991238;28;20555;-51
2023/06/09 09:14:53;;;;;;;6.90;4.00;;;25.50;99.90;;;;;;4992372;28;20563;-52
2023/06/09 09:17:20;;;;;;;5.77;3.47;;;25.80;99.90;;;;;;4994242;28;20449;-51
2023/06/09 09:19:48;;;;;;;10.60;4.17;;;26.00;99.90;;;;;;4994644;28;20515;-52
2023/06/09 09:22:15;;;;;;;5.77;3.83;;;26.00;99.90;;;;;;4994475;28;20460;-53
2023/06/09 09:24:45;;;;;;;8.63;3.90;;;26.00;99.90;;;;;;5007128;28;20511;-53
2023/06/09 09:27:20;;;;;;;8.70;4.20;;;26.00;99.90;;;;;;5000169;28;20553;-52
2023/06/09 09:29:47;;;;;;;9.77;4.67;;;26.10;99.90;;;;;;4992454;28;20527;-51
2023/06/09 09:32:15;;;;;;;8.20;4.20;;;25.50;99.90;;;;;;4989770;28;20504;-53
2023/06/09 09:34:44;;;;;;;10.33;4.67;;;26.40;99.90;;;;;;4992440;28;20918;-51
2023/06/09 09:37:11;;;;;;;4.50;4.07;;;26.50;99.90;;;;;;4991175;28;20966;-52
2023/06/09 09:39:50;;;;;;;7.13;3.90;;;26.60;99.90;;;;;;4987766;28;20469;-52
2023/06/09 09:42:17;;;;;;;5.00;3.77;;;26.60;99.90;;;;;;4992531;28;20464;-51
2023/06/09 09:44:46;;;;;;;4.40;3.90;;;25.90;99.90;;;;;;4987423;28;20576;-53
2023/06/09 09:47:14;;;;;;;4.63;4.13;;;26.00;99.90;;;;;;4989595;28;20467;-51
2023/06/09 09:49:50;;;;;;;4.57;4.17;;;25.90;99.90;;;;;;4992607;28;20507;-52
2023/06/09 09:52:22;;;;;;;4.63;4.20;;;26.00;99.90;;;;;;4988311;28;20468;-53
2023/06/09 09:54:53;;;;;;;4.93;4.30;;;26.00;99.90;;;;;;4988820;28;21008;-51
2023/06/09 09:57:20;;;;;;;8.67;4.30;;;25.80;99.90;;;;;;4990495;28;20551;-51
2023/06/09 09:59:48;;;;;;;9.27;3.87;;;25.80;99.90;;;;;;4991997;28;20564;-53
2023/06/09 10:02:21;;;;;;;13.07;4.40;;;25.70;99.90;;;;;;4982114;28;20556;-52
2023/06/09 10:04:49;;;;;;;3.77;3.47;;;25.80;99.90;;;;;;4989999;28;20575;-52
2023/06/09 10:07:21;;;;;;;9.63;3.57;;;25.60;99.90;;;;;;4990756;28;20559;-52
2023/06/09 10:09:49;;;;;;;5.73;3.63;;;25.80;99.90;;;;;;4986263;28;20465;-53
2023/06/09 10:12:18;;;;;;;8.17;3.60;;;26.20;99.90;;;;;;4984817;28;20472;-52
2023/06/09 10:14:45;;;;;;;4.30;3.90;;;26.70;99.90;;;;;;4990591;28;20583;-52
2023/06/09 10:17:13;;;;;;;3.97;3.43;;;26.90;99.90;;;;;;4992514;28;20536;-53
2023/06/09 10:19:41;;;;;;;3.63;3.33;;;27.00;99.90;;;;;;4992057;28;21227;-52
2023/06/09 10:22:08;;;;;;;5.60;3.47;;;26.40;99.90;;;;;;4992447;28;21136;-53
2023/06/09 10:24:36;;;;;;;6.20;3.30;;;26.60;99.90;;;;;;4998388;28;20585;-53
2023/06/09 10:27:04;;;;;;;4.73;3.57;;;26.40;99.90;;;;;;4993833;28;20531;-53
2023/06/09 10:29:33;;;;;;;11.80;4.03;;;26.10;99.90;;;;;;4990953;28;20889;-51
2023/06/09 10:32:02;;;;;;;4.70;4.20;;;26.00;99.90;;;;;;4992170;28;20483;-52
2023/06/09 10:34:32;;;;;;;3.70;3.40;;;26.10;99.90;;;;;;5002192;28;20507;-51
2023/06/09 10:36:59;;;;;;;4.13;3.63;;;26.10;99.90;;;;;;4992182;28;20535;-52
2023/06/09 10:39:31;;;;;;;4.00;3.60;;;26.20;99.90;;;;;;4991240;28;20895;-52
2023/06/09 10:42:09;;;;;;;5.20;4.00;;;26.80;99.90;;;;;;4990796;28;20970;-52
2023/06/09 10:44:45;;;;;;;3.80;3.40;;;27.00;99.90;;;;;;4980988;28;20571;-53
2023/06/09 10:47:32;;;;;;;9.47;3.47;;;27.20;99.90;;;;;;4988472;28;20547;-53
2023/06/09 10:49:58;;;;;;;6.93;3.60;;;27.50;99.90;;;;;;4989259;28;20543;-53
2023/06/09 10:52:52;;;;;;;3.80;3.40;;;27.20;99.90;;;;;;4990031;28;20902;-51
2023/06/09 10:55:21;;;;;;;5.40;4.10;;;27.10;99.90;;;;;;4990968;28;20473;-51
2023/06/09 10:57:47;;;;;;;5.00;3.40;;;27.20;99.90;;;;;;4987851;28;20503;-52
2023/06/09 11:00:16;;;;;;;7.63;3.97;;;27.10;99.90;;;;;;4987497;28;20464;-52
2023/06/09 11:02:46;;;;;;;3.20;2.90;;;26.90;99.90;;;;;;4990266;28;20963;-50
2023/06/09 11:06:00;;;;;;;3.90;3.60;;;26.60;99.90;;;;;;5083885;28;20645;-52
2023/06/09 11:08:26;;;;;;;3.37;3.07;;;27.60;99.90;;;;;;5060558;28;20995;-53
2023/06/09 11:10:53;;;;;;;3.80;3.40;;;28.20;99.90;;;;;;5068412;28;20524;-52
2023/06/09 11:13:39;;;;;;;7.33;4.10;;;28.70;99.90;;;;;;5060676;28;20979;-52
2023/06/09 11:16:07;;;;;;;5.60;3.83;;;28.00;99.90;;;;;;5061792;28;20465;-51
2023/06/09 11:18:34;;;;;;;3.73;3.23;;;27.90;99.90;;;;;;5063834;28;20505;-53
2023/06/09 11:21:16;;;;;;;4.00;3.70;;;27.90;99.90;;;;;;5068896;28;20480;-51
2023/06/09 11:23:57;;;;;;;4.50;3.10;;;28.30;99.90;;;;;;5061959;28;22448;-52
2023/06/09 11:26:25;;;;;;;5.90;3.13;;;28.50;72.40;;;;;;5064141;28;20603;-52
2023/06/09 11:28:52;;;;;;;3.70;3.40;;;28.70;76.00;;;;;;5068297;28;20855;-52
2023/06/09 11:31:18;;;;;;;3.10;3.00;;;28.90;21.20;;;;;;5063914;28;20460;-50
2023/06/09 11:33:47;;;;;;;5.90;2.90;;;29.00;21.00;;;;;;5059160;28;21086;-52
2023/06/09 11:36:47;;;;;;;7.53;4.03;;;29.00;22.30;;;;;;5068360;28;20455;-52
2023/06/09 11:39:14;;;;;;;2.83;2.63;;;29.40;21.30;;;;;;5050827;28;20497;-53
2023/06/09 11:41:41;;;;;;;3.20;3.00;;;28.70;24.50;;;;;;5057760;28;20587;-52
2023/06/09 11:44:07;;;;;;;5.83;3.07;;;29.30;22.90;;;;;;5065798;28;20534;-52
2023/06/09 11:46:35;;;;;;;3.23;2.80;;;29.30;20.30;;;;;;5058939;28;20922;-53
2023/06/09 11:49:07;;;;;;;4.83;2.90;;;29.40;21.90;;;;;;5065180;28;20462;-53
2023/06/09 11:51:59;;;;;;;3.27;3.00;;;29.20;24.40;;;;;;5066899;28;20910;-51
2023/06/09 11:54:44;;;;;;;4.23;3.40;;;29.40;22.20;;;;;;5057906;28;20478;-52
2023/06/09 11:57:14;;;;;;;3.30;3.10;;;29.50;24.90;;;;;;5065511;28;20453;-52
2023/06/09 11:59:40;;;;;;;5.20;2.80;;;29.50;25.00;;;;;;5068090;28;20445;-53
2023/06/09 12:02:07;;;;;;;3.30;3.10;;;29.60;26.40;;;;;;5062888;28;20539;-52
2023/06/09 12:04:35;;;;;;;3.03;2.73;;;29.40;27.20;;;;;;5065007;28;20564;-53
2023/06/09 12:07:03;;;;;;;3.20;2.90;;;29.40;26.70;;;;;;5065999;28;20461;-53
2023/06/09 12:09:30;;;;;;;3.03;2.93;;;29.30;29.70;;;;;;5061299;28;20489;-52
2023/06/09 12:11:56;;;;;;;3.17;3.00;;;28.80;29.90;;;;;;5064148;28;20555;-52
2023/06/09 12:14:23;;;;;;;11.47;2.47;;;28.60;27.50;;;;;;5066250;28;20928;-51
2023/06/09 12:16:50;;;;;;;4.30;3.20;;;27.90;27.30;;;;;;5054774;28;20557;-53
2023/06/09 12:19:19;;;;;;;6.00;3.00;;;27.70;29.00;;;;;;5052819;28;20442;-53
2023/06/09 12:21:47;;;;;;;6.47;3.10;;;27.90;27.80;;;;;;5054558;28;20457;-52
2023/06/09 12:24:15;;;;;;;5.97;2.50;;;28.50;23.90;;;;;;5051050;28;20484;-52
2023/06/09 12:26:44;;;;;;;3.00;2.80;;;29.10;28.20;;;;;;5054475;28;20484;-53
2023/06/09 12:29:11;;;;;;;3.77;3.50;;;29.40;27.50;;;;;;5034593;28;20502;-53
2023/06/09 12:31:44;;;;;;;7.93;3.87;;;29.80;27.10;;;;;;5034300;28;20990;-51
2023/06/09 12:34:25;;;;;;;4.60;2.80;;;29.80;25.70;;;;;;5046824;28;20902;-52
2023/06/09 12:36:52;;;;;;;3.73;3.17;;;29.90;28.40;;;;;;5052079;28;20541;-51
2023/06/09 12:39:21;;;;;;;5.33;3.40;;;30.00;27.10;;;;;;5052259;28;20548;-51
2023/06/09 12:41:47;;;;;;;3.60;3.37;;;29.90;28.90;;;;;;5053329;28;20530;-51
2023/06/09 12:44:24;;;;;;;12.87;4.27;;;30.00;29.70;;;;;;5052662;28;20576;-51
2023/06/09 12:46:55;;;;;;;9.20;2.97;;;30.00;30.40;;;;;;5051998;28;20561;-52
2023/06/09 12:49:30;;;;;;;6.53;3.50;;;30.30;29.30;;;;;;5049709;28;20541;-52